sensor_id;sensor_type;location;lat;lon;timestamp;temperature;humidity
48836;DHT22;62581;47.342;7.908;2023-06-04T00:01:05;18.40;99.90
48836;DHT22;62581;47.342;7.908;2023-06-04T00:03:33;18.40;99.90
48836;DHT22;62581;47.342;7.908;2023-06-04T00:06:00;18.40;99.90
48836;DHT22;62581;47.342;7.908;2023-06-04T00:08:28;18.40;99.90
48836;DHT22;62581;47.342;7.908;2023-06-04T00:10:55;18.40;99.90
48836;DHT22;62581;47.342;7.908;2023-06-04T00:13:21;18.50;99.90
48836;DHT22;62581;47.342;7.908;2023-06-04T00:15:48;18.50;99.90
48836;DHT22;62581;47.342;7.908;2023-06-04T00:18:17;18.40;99.90
48836;DHT22;62581;47.342;7.908;2023-06-04T00:20:44;18.40;99.90
48836;DHT22;62581;47.342;7.908;2023-06-04T00:23:11;18.40;99.90
48836;DHT22;62581;47.342;7.908;2023-06-04T00:25:38;18.30;99.90
48836;DHT22;62581;47.342;7.908;2023-06-04T00:28:05;18.20;99.90
48836;DHT22;62581;47.342;7.908;2023-06-04T00:30:32;18.00;99.90
48836;DHT22;62581;47.342;7.908;2023-06-04T00:33:00;17.90;99.90
48836;DHT22;62581;47.342;7.908;2023-06-04T00:35:28;17.80;99.90
48836;DHT22;62581;47.342;7.908;2023-06-04T00:37:55;17.60;99.90
48836;DHT22;62581;47.342;7.908;2023-06-04T00:40:22;17.60;99.90
48836;DHT22;62581;47.342;7.908;2023-06-04T00:42:49;17.60;99.90
48836;DHT22;62581;47.342;7.908;2023-06-04T00:45:16;17.50;99.90
48836;DHT22;62581;47.342;7.908;2023-06-04T00:47:45;17.50;99.90
48836;DHT22;62581;47.342;7.908;2023-06-04T00:50:13;17.40;99.90
48836;DHT22;62581;47.342;7.908;2023-06-04T00:52:42;17.40;99.90
48836;DHT22;62581;47.342;7.908;2023-06-04T00:55:10;17.30;99.90
48836;DHT22;62581;47.342;7.908;2023-06-04T00:57:37;17.20;99.90
48836;DHT22;62581;47.342;7.908;2023-06-04T01:00:06;17.10;99.90
48836;DHT22;62581;47.342;7.908;2023-06-04T01:02:34;17.10;99.90
48836;DHT22;62581;47.342;7.908;2023-06-04T01:05:09;17.10;99.90
48836;DHT22;62581;47.342;7.908;2023-06-04T01:07:38;17.10;99.90
48836;DHT22;62581;47.342;7.908;2023-06-04T01:10:12;17.00;99.90
48836;DHT22;62581;47.342;7.908;2023-06-04T01:12:40;17.00;99.90
48836;DHT22;62581;47.342;7.908;2023-06-04T01:15:08;17.00;99.90
48836;DHT22;62581;47.342;7.908;2023-06-04T01:17:38;16.90;99.90
48836;DHT22;62581;47.342;7.908;2023-06-04T01:20:16;16.90;99.90
48836;DHT22;62581;47.342;7.908;2023-06-04T01:22:56;16.90;99.90
48836;DHT22;62581;47.342;7.908;2023-06-04T01:25:33;16.90;99.90
48836;DHT22;62581;47.342;7.908;2023-06-04T01:28:01;16.90;99.90
48836;DHT22;62581;47.342;7.908;2023-06-04T01:30:31;16.70;99.90
48836;DHT22;62581;47.342;7.908;2023-06-04T01:32:59;16.70;99.90
48836;DHT22;62581;47.342;7.908;2023-06-04T01:35:26;16.60;99.90
48836;DHT22;62581;47.342;7.908;2023-06-04T01:37:54;16.60;99.90
48836;DHT22;62581;47.342;7.908;2023-06-04T01:40:21;16.50;99.90
48836;DHT22;62581;47.342;7.908;2023-06-04T01:42:50;16.50;99.90
48836;DHT22;62581;47.342;7.908;2023-06-04T01:45:17;16.40;99.90
48836;DHT22;62581;47.342;7.908;2023-06-04T01:47:44;16.40;99.90
48836;DHT22;62581;47.342;7.908;2023-06-04T01:50:11;16.30;99.90
48836;DHT22;62581;47.342;7.908;2023-06-04T01:52:38;16.30;99.90
48836;DHT22;62581;47.342;7.908;2023-06-04T01:55:06;16.30;99.90
48836;DHT22;62581;47.342;7.908;2023-06-04T01:57:34;16.20;99.90
48836;DHT22;62581;47.342;7.908;2023-06-04T02:00:04;16.20;99.90
48836;DHT22;62581;47.342;7.908;2023-06-04T02:02:33;16.10;99.90
48836;DHT22;62581;47.342;7.908;2023-06-04T02:05:01;16.10;99.90
48836;DHT22;62581;47.342;7.908;2023-06-04T02:07:28;16.10;99.90
48836;DHT22;62581;47.342;7.908;2023-06-04T02:09:56;16.00;99.90
48836;DHT22;62581;47.342;7.908;2023-06-04T02:12:23;16.00;99.90
48836;DHT22;62581;47.342;7.908;2023-06-04T02:14:50;16.00;99.90
48836;DHT22;62581;47.342;7.908;2023-06-04T02:17:19;16.00;99.90
48836;DHT22;62581;47.342;7.908;2023-06-04T02:19:46;15.90;99.90
48836;DHT22;62581;47.342;7.908;2023-06-04T02:22:15;16.00;99.90
48836;DHT22;62581;47.342;7.908;2023-06-04T02:24:42;15.90;99.90
48836;DHT22;62581;47.342;7.908;2023-06-04T02:27:09;15.90;99.90
48836;DHT22;62581;47.342;7.908;2023-06-04T02:29:37;15.80;99.90
48836;DHT22;62581;47.342;7.908;2023-06-04T02:32:05;15.80;99.90
48836;DHT22;62581;47.342;7.908;2023-06-04T02:34:34;15.80;99.90
48836;DHT22;62581;47.342;7.908;2023-06-04T02:37:01;15.80;99.90
48836;DHT22;62581;47.342;7.908;2023-06-04T02:39:29;15.80;99.90
48836;DHT22;62581;47.342;7.908;2023-06-04T02:41:56;15.70;99.90
48836;DHT22;62581;47.342;7.908;2023-06-04T02:44:23;15.70;99.90
48836;DHT22;62581;47.342;7.908;2023-06-04T02:46:50;15.70;99.90
48836;DHT22;62581;47.342;7.908;2023-06-04T02:49:17;15.70;99.90
48836;DHT22;62581;47.342;7.908;2023-06-04T02:51:46;15.60;99.90
48836;DHT22;62581;47.342;7.908;2023-06-04T02:54:12;15.60;99.90
48836;DHT22;62581;47.342;7.908;2023-06-04T02:56:39;15.60;99.90
48836;DHT22;62581;47.342;7.908;2023-06-04T02:59:06;15.50;99.90
48836;DHT22;62581;47.342;7.908;2023-06-04T03:01:35;15.50;99.90
48836;DHT22;62581;47.342;7.908;2023-06-04T03:04:02;15.50;99.90
48836;DHT22;62581;47.342;7.908;2023-06-04T03:06:31;15.50;99.90
48836;DHT22;62581;47.342;7.908;2023-06-04T03:08:59;15.50;99.90
48836;DHT22;62581;47.342;7.908;2023-06-04T03:11:27;15.40;99.90
48836;DHT22;62581;47.342;7.908;2023-06-04T03:13:54;15.40;99.90
48836;DHT22;62581;47.342;7.908;2023-06-04T03:16:21;15.30;99.90
48836;DHT22;62581;47.342;7.908;2023-06-04T03:18:48;15.30;99.90
48836;DHT22;62581;47.342;7.908;2023-06-04T03:21:15;15.30;99.90
48836;DHT22;62581;47.342;7.908;2023-06-04T03:23:43;15.30;99.90
48836;DHT22;62581;47.342;7.908;2023-06-04T03:26:12;15.30;99.90
48836;DHT22;62581;47.342;7.908;2023-06-04T03:28:39;15.30;99.90
48836;DHT22;62581;47.342;7.908;2023-06-04T03:31:06;15.30;99.90
48836;DHT22;62581;47.342;7.908;2023-06-04T03:33:33;15.20;99.90
48836;DHT22;62581;47.342;7.908;2023-06-04T03:36:00;15.20;99.90
48836;DHT22;62581;47.342;7.908;2023-06-04T03:38:28;15.20;99.90
48836;DHT22;62581;47.342;7.908;2023-06-04T03:40:55;15.20;99.90
48836;DHT22;62581;47.342;7.908;2023-06-04T03:43:23;15.20;99.90
48836;DHT22;62581;47.342;7.908;2023-06-04T03:45:50;15.20;99.90
48836;DHT22;62581;47.342;7.908;2023-06-04T03:48:17;15.20;99.90
48836;DHT22;62581;47.342;7.908;2023-06-04T03:50:44;15.20;99.90
48836;DHT22;62581;47.342;7.908;2023-06-04T03:53:11;15.20;99.90
48836;DHT22;62581;47.342;7.908;2023-06-04T03:55:38;15.20;99.90
48836;DHT22;62581;47.342;7.908;2023-06-04T03:58:05;15.10;99.90
48836;DHT22;62581;47.342;7.908;2023-06-04T04:00:36;15.10;99.90
48836;DHT22;62581;47.342;7.908;2023-06-04T04:03:03;15.10;99.90
48836;DHT22;62581;47.342;7.908;2023-06-04T04:05:31;15.10;99.90
48836;DHT22;62581;47.342;7.908;2023-06-04T04:07:58;15.10;99.90
48836;DHT22;62581;47.342;7.908;2023-06-04T04:10:25;15.10;99.90
48836;DHT22;62581;47.342;7.908;2023-06-04T04:12:52;15.10;99.90
48836;DHT22;62581;47.342;7.908;2023-06-04T04:15:20;15.10;99.90
48836;DHT22;62581;47.342;7.908;2023-06-04T04:17:49;15.20;99.90
48836;DHT22;62581;47.342;7.908;2023-06-04T04:20:16;15.20;99.90
48836;DHT22;62581;47.342;7.908;2023-06-04T04:22:43;15.30;99.90
48836;DHT22;62581;47.342;7.908;2023-06-04T04:25:10;15.40;99.90
48836;DHT22;62581;47.342;7.908;2023-06-04T04:27:37;15.40;99.90
48836;DHT22;62581;47.342;7.908;2023-06-04T04:30:07;15.40;99.90
48836;DHT22;62581;47.342;7.908;2023-06-04T04:32:35;15.50;99.90
48836;DHT22;62581;47.342;7.908;2023-06-04T04:35:06;15.50;99.90
48836;DHT22;62581;47.342;7.908;2023-06-04T04:37:34;15.50;99.90
48836;DHT22;62581;47.342;7.908;2023-06-04T04:40:06;15.60;99.90
48836;DHT22;62581;47.342;7.908;2023-06-04T04:42:35;15.60;99.90
48836;DHT22;62581;47.342;7.908;2023-06-04T04:45:02;15.60;99.90
48836;DHT22;62581;47.342;7.908;2023-06-04T04:47:29;15.60;99.90
48836;DHT22;62581;47.342;7.908;2023-06-04T04:49:55;15.70;99.90
48836;DHT22;62581;47.342;7.908;2023-06-04T04:52:24;15.70;99.90
48836;DHT22;62581;47.342;7.908;2023-06-04T04:54:51;15.70;99.90
48836;DHT22;62581;47.342;7.908;2023-06-04T04:57:21;15.70;99.90
48836;DHT22;62581;47.342;7.908;2023-06-04T04:59:48;15.70;99.90
48836;DHT22;62581;47.342;7.908;2023-06-04T05:02:15;15.80;99.90
48836;DHT22;62581;47.342;7.908;2023-06-04T05:04:42;15.80;99.90
48836;DHT22;62581;47.342;7.908;2023-06-04T05:07:09;15.80;99.90
48836;DHT22;62581;47.342;7.908;2023-06-04T05:09:37;15.80;99.90
48836;DHT22;62581;47.342;7.908;2023-06-04T05:12:04;15.90;99.90
48836;DHT22;62581;47.342;7.908;2023-06-04T05:14:32;15.90;99.90
48836;DHT22;62581;47.342;7.908;2023-06-04T05:17:01;15.90;99.90
48836;DHT22;62581;47.342;7.908;2023-06-04T05:19:28;15.90;99.90
48836;DHT22;62581;47.342;7.908;2023-06-04T05:21:58;16.00;99.90
48836;DHT22;62581;47.342;7.908;2023-06-04T05:24:26;16.00;99.90
48836;DHT22;62581;47.342;7.908;2023-06-04T05:26:55;16.00;99.90
48836;DHT22;62581;47.342;7.908;2023-06-04T05:29:22;16.10;99.90
48836;DHT22;62581;47.342;7.908;2023-06-04T05:31:49;16.10;99.90
48836;DHT22;62581;47.342;7.908;2023-06-04T05:34:16;16.10;99.90
48836;DHT22;62581;47.342;7.908;2023-06-04T05:36:43;16.20;99.90
48836;DHT22;62581;47.342;7.908;2023-06-04T05:39:10;16.20;99.90
48836;DHT22;62581;47.342;7.908;2023-06-04T05:41:37;16.20;99.90
48836;DHT22;62581;47.342;7.908;2023-06-04T05:44:06;16.30;99.90
48836;DHT22;62581;47.342;7.908;2023-06-04T05:46:32;16.40;99.90
48836;DHT22;62581;47.342;7.908;2023-06-04T05:48:59;16.40;99.90
48836;DHT22;62581;47.342;7.908;2023-06-04T05:51:26;16.50;99.90
48836;DHT22;62581;47.342;7.908;2023-06-04T05:53:54;16.50;99.90
48836;DHT22;62581;47.342;7.908;2023-06-04T05:56:21;16.60;99.90
48836;DHT22;62581;47.342;7.908;2023-06-04T05:58:51;16.60;99.90
48836;DHT22;62581;47.342;7.908;2023-06-04T06:01:20;16.70;99.90
48836;DHT22;62581;47.342;7.908;2023-06-04T06:03:47;16.70;99.90
48836;DHT22;62581;47.342;7.908;2023-06-04T06:06:14;16.70;99.90
48836;DHT22;62581;47.342;7.908;2023-06-04T06:08:41;16.80;99.90
48836;DHT22;62581;47.342;7.908;2023-06-04T06:11:08;16.90;99.90
48836;DHT22;62581;47.342;7.908;2023-06-04T06:13:35;16.90;99.90
48836;DHT22;62581;47.342;7.908;2023-06-04T06:16:02;17.00;99.90
48836;DHT22;62581;47.342;7.908;2023-06-04T06:18:31;17.10;99.90
48836;DHT22;62581;47.342;7.908;2023-06-04T06:20:58;17.20;99.90
48836;DHT22;62581;47.342;7.908;2023-06-04T06:23:25;17.30;99.90
48836;DHT22;62581;47.342;7.908;2023-06-04T06:25:52;17.40;99.90
48836;DHT22;62581;47.342;7.908;2023-06-04T06:28:19;17.40;99.90
48836;DHT22;62581;47.342;7.908;2023-06-04T06:30:46;17.40;99.90
48836;DHT22;62581;47.342;7.908;2023-06-04T06:33:13;17.50;99.90
48836;DHT22;62581;47.342;7.908;2023-06-04T06:35:41;17.60;99.90
48836;DHT22;62581;47.342;7.908;2023-06-04T06:38:11;17.60;99.90
48836;DHT22;62581;47.342;7.908;2023-06-04T06:40:40;17.70;99.90
48836;DHT22;62581;47.342;7.908;2023-06-04T06:43:07;17.80;99.90
48836;DHT22;62581;47.342;7.908;2023-06-04T06:45:35;17.90;99.90
48836;DHT22;62581;47.342;7.908;2023-06-04T06:48:02;18.00;99.90
48836;DHT22;62581;47.342;7.908;2023-06-04T06:50:29;18.00;99.90
48836;DHT22;62581;47.342;7.908;2023-06-04T06:52:58;18.10;99.90
48836;DHT22;62581;47.342;7.908;2023-06-04T06:55:25;18.10;99.90
48836;DHT22;62581;47.342;7.908;2023-06-04T06:57:52;18.10;99.90
48836;DHT22;62581;47.342;7.908;2023-06-04T07:00:19;18.10;99.90
48836;DHT22;62581;47.342;7.908;2023-06-04T07:02:46;18.20;99.90
48836;DHT22;62581;47.342;7.908;2023-06-04T07:05:14;18.30;99.90
48836;DHT22;62581;47.342;7.908;2023-06-04T07:07:43;18.30;99.90
48836;DHT22;62581;47.342;7.908;2023-06-04T07:10:11;18.50;99.90
48836;DHT22;62581;47.342;7.908;2023-06-04T07:12:38;18.70;99.90
48836;DHT22;62581;47.342;7.908;2023-06-04T07:15:06;18.90;99.90
48836;DHT22;62581;47.342;7.908;2023-06-04T07:17:34;19.00;99.90
48836;DHT22;62581;47.342;7.908;2023-06-04T07:20:01;19.10;99.90
48836;DHT22;62581;47.342;7.908;2023-06-04T07:22:29;19.30;99.90
48836;DHT22;62581;47.342;7.908;2023-06-04T07:24:56;19.40;99.90
48836;DHT22;62581;47.342;7.908;2023-06-04T07:27:24;19.50;99.90
48836;DHT22;62581;47.342;7.908;2023-06-04T07:29:52;19.60;99.90
48836;DHT22;62581;47.342;7.908;2023-06-04T07:32:19;19.60;99.90
48836;DHT22;62581;47.342;7.908;2023-06-04T07:34:46;19.60;99.90
48836;DHT22;62581;47.342;7.908;2023-06-04T07:37:13;19.60;99.90
48836;DHT22;62581;47.342;7.908;2023-06-04T07:39:41;19.70;99.90
48836;DHT22;62581;47.342;7.908;2023-06-04T07:42:08;19.60;99.90
48836;DHT22;62581;47.342;7.908;2023-06-04T07:44:37;19.50;99.90
48836;DHT22;62581;47.342;7.908;2023-06-04T07:47:04;19.50;99.90
48836;DHT22;62581;47.342;7.908;2023-06-04T07:49:31;19.50;99.90
48836;DHT22;62581;47.342;7.908;2023-06-04T07:51:58;19.60;99.90
48836;DHT22;62581;47.342;7.908;2023-06-04T07:54:25;19.70;99.90
48836;DHT22;62581;47.342;7.908;2023-06-04T07:56:52;19.70;99.90
48836;DHT22;62581;47.342;7.908;2023-06-04T07:59:21;19.90;99.90
48836;DHT22;62581;47.342;7.908;2023-06-04T08:01:50;20.00;99.90
48836;DHT22;62581;47.342;7.908;2023-06-04T08:04:17;20.10;99.90
48836;DHT22;62581;47.342;7.908;2023-06-04T08:06:44;20.20;99.90
48836;DHT22;62581;47.342;7.908;2023-06-04T08:09:12;20.30;99.90
48836;DHT22;62581;47.342;7.908;2023-06-04T08:11:40;20.40;99.90
48836;DHT22;62581;47.342;7.908;2023-06-04T08:14:07;20.40;99.90
48836;DHT22;62581;47.342;7.908;2023-06-04T08:16:34;20.50;99.90
48836;DHT22;62581;47.342;7.908;2023-06-04T08:19:03;20.50;99.90
48836;DHT22;62581;47.342;7.908;2023-06-04T08:21:30;20.50;99.90
48836;DHT22;62581;47.342;7.908;2023-06-04T08:23:57;20.60;99.90
48836;DHT22;62581;47.342;7.908;2023-06-04T08:26:24;20.70;99.90
48836;DHT22;62581;47.342;7.908;2023-06-04T08:28:51;20.70;99.90
48836;DHT22;62581;47.342;7.908;2023-06-04T08:31:18;20.80;99.90
48836;DHT22;62581;47.342;7.908;2023-06-04T08:33:46;20.90;99.90
48836;DHT22;62581;47.342;7.908;2023-06-04T08:36:15;21.00;99.90
48836;DHT22;62581;47.342;7.908;2023-06-04T08:38:42;20.90;99.90
48836;DHT22;62581;47.342;7.908;2023-06-04T08:41:13;21.00;99.90
48836;DHT22;62581;47.342;7.908;2023-06-04T08:43:42;21.00;99.90
48836;DHT22;62581;47.342;7.908;2023-06-04T08:46:11;21.10;99.90
48836;DHT22;62581;47.342;7.908;2023-06-04T08:48:38;21.00;99.90
48836;DHT22;62581;47.342;7.908;2023-06-04T08:51:06;21.10;99.90
48836;DHT22;62581;47.342;7.908;2023-06-04T08:53:36;21.20;99.90
48836;DHT22;62581;47.342;7.908;2023-06-04T08:56:04;21.40;99.90
48836;DHT22;62581;47.342;7.908;2023-06-04T08:58:31;21.50;99.90
48836;DHT22;62581;47.342;7.908;2023-06-04T09:01:00;21.60;99.90
48836;DHT22;62581;47.342;7.908;2023-06-04T09:03:28;21.60;99.90
48836;DHT22;62581;47.342;7.908;2023-06-04T09:05:57;21.70;99.90
48836;DHT22;62581;47.342;7.908;2023-06-04T09:08:26;21.80;99.90
48836;DHT22;62581;47.342;7.908;2023-06-04T09:10:55;21.70;99.90
48836;DHT22;62581;47.342;7.908;2023-06-04T09:13:23;21.80;99.90
48836;DHT22;62581;47.342;7.908;2023-06-04T09:16:00;21.90;99.90
48836;DHT22;62581;47.342;7.908;2023-06-04T09:18:27;22.10;99.90
48836;DHT22;62581;47.342;7.908;2023-06-04T09:21:01;22.20;99.90
48836;DHT22;62581;47.342;7.908;2023-06-04T09:23:28;22.20;99.90
48836;DHT22;62581;47.342;7.908;2023-06-04T09:26:06;22.30;99.90
48836;DHT22;62581;47.342;7.908;2023-06-04T09:28:33;22.40;99.90
48836;DHT22;62581;47.342;7.908;2023-06-04T09:31:00;22.40;99.90
48836;DHT22;62581;47.342;7.908;2023-06-04T09:33:28;22.60;99.90
48836;DHT22;62581;47.342;7.908;2023-06-04T09:35:56;22.70;99.90
48836;DHT22;62581;47.342;7.908;2023-06-04T09:38:23;22.80;99.90
48836;DHT22;62581;47.342;7.908;2023-06-04T09:40:50;22.90;99.90
48836;DHT22;62581;47.342;7.908;2023-06-04T09:43:25;22.90;99.90
48836;DHT22;62581;47.342;7.908;2023-06-04T09:45:52;23.00;99.90
48836;DHT22;62581;47.342;7.908;2023-06-04T09:48:20;23.00;99.90
48836;DHT22;62581;47.342;7.908;2023-06-04T09:50:48;23.00;99.90
48836;DHT22;62581;47.342;7.908;2023-06-04T09:53:15;23.10;99.90
48836;DHT22;62581;47.342;7.908;2023-06-04T09:55:42;23.20;99.90
48836;DHT22;62581;47.342;7.908;2023-06-04T09:58:11;23.10;99.90
48836;DHT22;62581;47.342;7.908;2023-06-04T10:00:40;23.20;99.90
48836;DHT22;62581;47.342;7.908;2023-06-04T10:03:11;23.30;99.90
48836;DHT22;62581;47.342;7.908;2023-06-04T10:05:40;23.30;99.90
48836;DHT22;62581;47.342;7.908;2023-06-04T10:08:09;23.40;99.90
48836;DHT22;62581;47.342;7.908;2023-06-04T10:10:36;23.50;99.90
48836;DHT22;62581;47.342;7.908;2023-06-04T10:13:07;23.50;99.90
48836;DHT22;62581;47.342;7.908;2023-06-04T10:15:36;23.50;99.90
48836;DHT22;62581;47.342;7.908;2023-06-04T10:18:05;23.60;99.90
48836;DHT22;62581;47.342;7.908;2023-06-04T10:20:33;23.70;99.90
48836;DHT22;62581;47.342;7.908;2023-06-04T10:23:00;23.70;99.90
48836;DHT22;62581;47.342;7.908;2023-06-04T10:25:30;23.70;99.90
48836;DHT22;62581;47.342;7.908;2023-06-04T10:27:57;23.80;99.90
48836;DHT22;62581;47.342;7.908;2023-06-04T10:30:24;23.90;99.90
48836;DHT22;62581;47.342;7.908;2023-06-04T10:32:52;24.00;99.90
48836;DHT22;62581;47.342;7.908;2023-06-04T10:35:30;24.00;99.90
48836;DHT22;62581;47.342;7.908;2023-06-04T10:38:07;24.00;99.90
48836;DHT22;62581;47.342;7.908;2023-06-04T10:40:35;24.00;99.90
48836;DHT22;62581;47.342;7.908;2023-06-04T10:43:06;24.10;99.90
48836;DHT22;62581;47.342;7.908;2023-06-04T10:45:33;24.30;99.90
48836;DHT22;62581;47.342;7.908;2023-06-04T10:48:01;24.40;99.90
48836;DHT22;62581;47.342;7.908;2023-06-04T10:50:30;24.50;99.90
48836;DHT22;62581;47.342;7.908;2023-06-04T10:52:58;24.50;99.90
48836;DHT22;62581;47.342;7.908;2023-06-04T10:55:28;24.60;99.90
48836;DHT22;62581;47.342;7.908;2023-06-04T10:57:57;24.70;99.90
48836;DHT22;62581;47.342;7.908;2023-06-04T11:00:34;24.70;99.90
48836;DHT22;62581;47.342;7.908;2023-06-04T11:03:01;24.70;99.00
48836;DHT22;62581;47.342;7.908;2023-06-04T11:05:35;24.80;98.80
48836;DHT22;62581;47.342;7.908;2023-06-04T11:08:03;24.90;97.80
48836;DHT22;62581;47.342;7.908;2023-06-04T11:10:32;25.10;98.60
48836;DHT22;62581;47.342;7.908;2023-06-04T11:13:01;25.10;98.10
48836;DHT22;62581;47.342;7.908;2023-06-04T11:15:37;25.20;98.40
48836;DHT22;62581;47.342;7.908;2023-06-04T11:18:04;25.30;98.20
48836;DHT22;62581;47.342;7.908;2023-06-04T11:20:31;25.30;96.70
48836;DHT22;62581;47.342;7.908;2023-06-04T11:23:00;25.40;96.80
48836;DHT22;62581;47.342;7.908;2023-06-04T11:25:29;25.50;96.10
48836;DHT22;62581;47.342;7.908;2023-06-04T11:27:59;25.60;95.90
48836;DHT22;62581;47.342;7.908;2023-06-04T11:30:27;25.80;96.70
48836;DHT22;62581;47.342;7.908;2023-06-04T11:33:01;25.90;95.60
48836;DHT22;62581;47.342;7.908;2023-06-04T11:35:28;25.90;95.10
48836;DHT22;62581;47.342;7.908;2023-06-04T11:37:57;26.00;95.00
48836;DHT22;62581;47.342;7.908;2023-06-04T11:40:25;25.90;94.70
48836;DHT22;62581;47.342;7.908;2023-06-04T11:42:53;26.00;94.50
48836;DHT22;62581;47.342;7.908;2023-06-04T11:45:22;26.10;93.80
48836;DHT22;62581;47.342;7.908;2023-06-04T11:47:51;26.20;93.40
48836;DHT22;62581;47.342;7.908;2023-06-04T11:50:18;26.20;93.00
48836;DHT22;62581;47.342;7.908;2023-06-04T11:52:47;26.30;91.50
48836;DHT22;62581;47.342;7.908;2023-06-04T11:55:15;26.30;90.50
48836;DHT22;62581;47.342;7.908;2023-06-04T11:57:48;26.40;90.50
48836;DHT22;62581;47.342;7.908;2023-06-04T12:00:16;26.50;88.30
48836;DHT22;62581;47.342;7.908;2023-06-04T12:02:51;26.50;87.20
48836;DHT22;62581;47.342;7.908;2023-06-04T12:05:19;26.70;86.00
48836;DHT22;62581;47.342;7.908;2023-06-04T12:07:49;26.80;83.80
48836;DHT22;62581;47.342;7.908;2023-06-04T12:10:17;26.90;83.40
48836;DHT22;62581;47.342;7.908;2023-06-04T12:12:44;26.90;82.50
48836;DHT22;62581;47.342;7.908;2023-06-04T12:15:19;27.10;81.60
48836;DHT22;62581;47.342;7.908;2023-06-04T12:17:50;27.10;80.60
48836;DHT22;62581;47.342;7.908;2023-06-04T12:20:18;27.10;81.00
48836;DHT22;62581;47.342;7.908;2023-06-04T12:22:45;27.10;81.70
48836;DHT22;62581;47.342;7.908;2023-06-04T12:25:23;27.00;78.70
48836;DHT22;62581;47.342;7.908;2023-06-04T12:27:51;27.10;79.50
48836;DHT22;62581;47.342;7.908;2023-06-04T12:30:20;27.20;79.80
48836;DHT22;62581;47.342;7.908;2023-06-04T12:32:48;27.40;79.80
48836;DHT22;62581;47.342;7.908;2023-06-04T12:35:16;27.50;80.70
48836;DHT22;62581;47.342;7.908;2023-06-04T12:37:43;27.50;80.80
48836;DHT22;62581;47.342;7.908;2023-06-04T12:40:10;27.50;81.90
48836;DHT22;62581;47.342;7.908;2023-06-04T12:42:39;27.30;83.60
48836;DHT22;62581;47.342;7.908;2023-06-04T12:45:07;27.70;82.10
48836;DHT22;62581;47.342;7.908;2023-06-04T12:47:36;28.60;79.80
48836;DHT22;62581;47.342;7.908;2023-06-04T12:50:04;29.80;78.10
48836;DHT22;62581;47.342;7.908;2023-06-04T12:52:31;31.10;75.90
48836;DHT22;62581;47.342;7.908;2023-06-04T12:54:58;32.20;72.20
48836;DHT22;62581;47.342;7.908;2023-06-04T12:57:25;33.60;70.10
48836;DHT22;62581;47.342;7.908;2023-06-04T12:59:52;34.90;66.20
48836;DHT22;62581;47.342;7.908;2023-06-04T13:02:19;36.00;62.60
48836;DHT22;62581;47.342;7.908;2023-06-04T13:04:47;36.90;59.80
48836;DHT22;62581;47.342;7.908;2023-06-04T13:07:18;37.50;57.40
48836;DHT22;62581;47.342;7.908;2023-06-04T13:09:45;38.00;56.70
48836;DHT22;62581;47.342;7.908;2023-06-04T13:12:12;38.20;55.50
48836;DHT22;62581;47.342;7.908;2023-06-04T13:14:39;38.00;55.30
48836;DHT22;62581;47.342;7.908;2023-06-04T13:17:06;37.80;55.20
48836;DHT22;62581;47.342;7.908;2023-06-04T13:19:35;37.80;53.80
48836;DHT22;62581;47.342;7.908;2023-06-04T13:22:03;38.00;53.90
48836;DHT22;62581;47.342;7.908;2023-06-04T13:24:30;37.90;53.20
48836;DHT22;62581;47.342;7.908;2023-06-04T13:26:57;38.00;52.90
48836;DHT22;62581;47.342;7.908;2023-06-04T13:29:24;37.60;51.60
48836;DHT22;62581;47.342;7.908;2023-06-04T13:31:52;37.50;51.80
48836;DHT22;62581;47.342;7.908;2023-06-04T13:34:20;37.50;51.90
48836;DHT22;62581;47.342;7.908;2023-06-04T13:36:47;37.40;51.60
48836;DHT22;62581;47.342;7.908;2023-06-04T13:39:16;38.00;51.30
48836;DHT22;62581;47.342;7.908;2023-06-04T13:41:43;38.70;51.30
48836;DHT22;62581;47.342;7.908;2023-06-04T13:44:09;39.00;49.90
48836;DHT22;62581;47.342;7.908;2023-06-04T13:46:36;40.00;49.90
48836;DHT22;62581;47.342;7.908;2023-06-04T13:49:03;40.30;49.10
48836;DHT22;62581;47.342;7.908;2023-06-04T13:51:31;40.30;48.50
48836;DHT22;62581;47.342;7.908;2023-06-04T13:53:57;40.10;49.50
48836;DHT22;62581;47.342;7.908;2023-06-04T13:56:26;40.10;48.90
48836;DHT22;62581;47.342;7.908;2023-06-04T13:58:53;39.70;48.90
48836;DHT22;62581;47.342;7.908;2023-06-04T14:01:20;39.70;49.30
48836;DHT22;62581;47.342;7.908;2023-06-04T14:03:47;39.60;48.40
48836;DHT22;62581;47.342;7.908;2023-06-04T14:06:14;39.20;48.70
48836;DHT22;62581;47.342;7.908;2023-06-04T14:08:41;39.00;49.20
48836;DHT22;62581;47.342;7.908;2023-06-04T14:11:08;38.90;49.60
48836;DHT22;62581;47.342;7.908;2023-06-04T14:13:38;38.80;48.80
48836;DHT22;62581;47.342;7.908;2023-06-04T14:16:06;38.90;49.50
48836;DHT22;62581;47.342;7.908;2023-06-04T14:18:33;39.30;49.00
48836;DHT22;62581;47.342;7.908;2023-06-04T14:21:00;39.70;49.30
48836;DHT22;62581;47.342;7.908;2023-06-04T14:23:27;39.90;48.50
48836;DHT22;62581;47.342;7.908;2023-06-04T14:25:54;40.60;47.40
48836;DHT22;62581;47.342;7.908;2023-06-04T14:28:21;40.50;47.20
48836;DHT22;62581;47.342;7.908;2023-06-04T14:30:49;41.30;47.20
48836;DHT22;62581;47.342;7.908;2023-06-04T14:33:16;42.90;45.70
48836;DHT22;62581;47.342;7.908;2023-06-04T14:35:43;44.30;45.00
48836;DHT22;62581;47.342;7.908;2023-06-04T14:38:12;45.20;44.10
48836;DHT22;62581;47.342;7.908;2023-06-04T14:40:40;45.80;43.60
48836;DHT22;62581;47.342;7.908;2023-06-04T14:43:09;46.50;42.60
48836;DHT22;62581;47.342;7.908;2023-06-04T14:45:36;47.00;42.00
48836;DHT22;62581;47.342;7.908;2023-06-04T14:48:06;47.10;41.50
48836;DHT22;62581;47.342;7.908;2023-06-04T14:50:33;46.30;42.20
48836;DHT22;62581;47.342;7.908;2023-06-04T14:53:00;45.80;41.70
48836;DHT22;62581;47.342;7.908;2023-06-04T14:55:27;45.80;42.40
48836;DHT22;62581;47.342;7.908;2023-06-04T14:57:54;46.40;41.70
48836;DHT22;62581;47.342;7.908;2023-06-04T15:00:21;46.20;41.10
48836;DHT22;62581;47.342;7.908;2023-06-04T15:02:48;44.30;42.30
48836;DHT22;62581;47.342;7.908;2023-06-04T15:05:16;42.10;42.10
48836;DHT22;62581;47.342;7.908;2023-06-04T15:07:43;40.20;44.30
48836;DHT22;62581;47.342;7.908;2023-06-04T15:10:10;38.80;45.90
48836;DHT22;62581;47.342;7.908;2023-06-04T15:12:37;38.60;47.10
48836;DHT22;62581;47.342;7.908;2023-06-04T15:15:06;40.20;45.90
48836;DHT22;62581;47.342;7.908;2023-06-04T15:17:33;42.00;44.20
48836;DHT22;62581;47.342;7.908;2023-06-04T15:20:00;43.20;42.70
48836;DHT22;62581;47.342;7.908;2023-06-04T15:22:29;44.50;42.30
48836;DHT22;62581;47.342;7.908;2023-06-04T15:24:56;45.60;42.00
48836;DHT22;62581;47.342;7.908;2023-06-04T15:27:23;46.40;41.00
48836;DHT22;62581;47.342;7.908;2023-06-04T15:29:50;47.30;40.10
48836;DHT22;62581;47.342;7.908;2023-06-04T15:32:17;48.00;39.40
48836;DHT22;62581;47.342;7.908;2023-06-04T15:34:44;47.50;39.30